CheckWX is a tool to help pilots better visualize weather data.  It is not intended as a substitute for an official pre-flight weather briefing.

03:22:32 UTC

PANT METAR
Annette Island Airport
Annette, Alaska, USA
Current

30 mins ago

PANT 180253Z AUTO 33005KT 10SM CLR 14/11 A2977 RMK SLP082 T01390106 51018 TSNO VIA AUTODIAL
Observed
Sep-18 @ 02:53 UTC
Wind
  • 330° at 5 KTS
Visibility
10 SM
Flight Rules
VFR
Cloud Levels
  • Clear skies
Temperature
14°C / 57°F
Dewpoint
11°C / 52°F
Humidity
82%
Altimeter
29.77" Hg
Pressure
1008.12 hPa
Previous

2 hours ago

PANT 180053Z AUTO 32006KT 10SM FEW085 18/11 A2974 RMK SLP070 T01780106 TSNO VIA AUTODIAL
Observed
Sep-18 @ 00:53 UTC
Wind
  • 320° at 6 KTS
Visibility
10 SM
Flight Rules
VFR
Cloud Levels
  • Few at 8,500' AGL
Temperature
18°C / 64°F
Dewpoint
11°C / 52°F
Humidity
64%
Altimeter
29.74" Hg
Pressure
1007.12 hPa
Previous

3 hours ago

PANT 172353Z AUTO 32005KT 10SM FEW085 19/11 A2972 RMK SLP063 T01940106 10206 20150 51018 TSNO VIA AUTODIAL
Observed
Sep-17 @ 23:53 UTC
Wind
  • 320° at 5 KTS
Visibility
10 SM
Flight Rules
VFR
Cloud Levels
  • Few at 8,500' AGL
Temperature
19°C / 66°F
Dewpoint
11°C / 52°F
Humidity
60%
Altimeter
29.72" Hg
Pressure
1006.42 hPa